sensor_id;sensor_type;location;lat;lon;timestamp;P1;durP1;ratioP1;P2;durP2;ratioP2
55710;SDS011;41612;51.994;5.880;2023-01-16T00:00:51;8.35;;;1.90;;
55710;SDS011;41612;51.994;5.880;2023-01-16T00:03:18;3.78;;;1.73;;
55710;SDS011;41612;51.994;5.880;2023-01-16T00:05:44;3.63;;;1.40;;
55710;SDS011;41612;51.994;5.880;2023-01-16T00:08:10;5.00;;;1.50;;
55710;SDS011;41612;51.994;5.880;2023-01-16T00:10:36;4.40;;;1.38;;
55710;SDS011;41612;51.994;5.880;2023-01-16T00:13:02;7.28;;;1.75;;
55710;SDS011;41612;51.994;5.880;2023-01-16T00:15:27;5.05;;;1.58;;
55710;SDS011;41612;51.994;5.880;2023-01-16T00:17:53;7.45;;;1.90;;
55710;SDS011;41612;51.994;5.880;2023-01-16T00:20:19;2.88;;;1.45;;
55710;SDS011;41612;51.994;5.880;2023-01-16T00:22:45;3.63;;;1.88;;
55710;SDS011;41612;51.994;5.880;2023-01-16T00:25:11;5.53;;;2.13;;
55710;SDS011;41612;51.994;5.880;2023-01-16T00:27:36;5.43;;;2.15;;
55710;SDS011;41612;51.994;5.880;2023-01-16T00:30:03;6.97;;;2.42;;
55710;SDS011;41612;51.994;5.880;2023-01-16T00:32:29;4.47;;;2.38;;
55710;SDS011;41612;51.994;5.880;2023-01-16T00:34:55;4.32;;;2.10;;
55710;SDS011;41612;51.994;5.880;2023-01-16T00:37:20;5.78;;;2.65;;
55710;SDS011;41612;51.994;5.880;2023-01-16T00:39:46;4.70;;;3.03;;
55710;SDS011;41612;51.994;5.880;2023-01-16T00:42:12;8.32;;;2.92;;
55710;SDS011;41612;51.994;5.880;2023-01-16T00:44:38;7.90;;;3.90;;
55710;SDS011;41612;51.994;5.880;2023-01-16T00:47:03;4.97;;;3.22;;
55710;SDS011;41612;51.994;5.880;2023-01-16T00:49:30;7.00;;;3.88;;
55710;SDS011;41612;51.994;5.880;2023-01-16T00:51:55;8.35;;;3.28;;
55710;SDS011;41612;51.994;5.880;2023-01-16T00:54:21;6.63;;;3.90;;
55710;SDS011;41612;51.994;5.880;2023-01-16T00:56:47;7.53;;;4.65;;
55710;SDS011;41612;51.994;5.880;2023-01-16T00:59:12;8.75;;;5.65;;
55710;SDS011;41612;51.994;5.880;2023-01-16T01:01:38;10.25;;;6.95;;
55710;SDS011;41612;51.994;5.880;2023-01-16T01:04:04;9.13;;;5.95;;
55710;SDS011;41612;51.994;5.880;2023-01-16T01:06:30;12.43;;;7.47;;
55710;SDS011;41612;51.994;5.880;2023-01-16T01:08:55;11.38;;;7.03;;
55710;SDS011;41612;51.994;5.880;2023-01-16T01:11:21;12.43;;;8.30;;
55710;SDS011;41612;51.994;5.880;2023-01-16T01:13:48;10.30;;;8.07;;
55710;SDS011;41612;51.994;5.880;2023-01-16T01:16:15;11.35;;;7.88;;
55710;SDS011;41612;51.994;5.880;2023-01-16T01:18:41;10.48;;;7.45;;
55710;SDS011;41612;51.994;5.880;2023-01-16T01:21:07;10.05;;;6.63;;
55710;SDS011;41612;51.994;5.880;2023-01-16T01:23:33;6.70;;;5.03;;
55710;SDS011;41612;51.994;5.880;2023-01-16T01:26:09;7.88;;;6.22;;
55710;SDS011;41612;51.994;5.880;2023-01-16T01:28:37;9.43;;;6.57;;
55710;SDS011;41612;51.994;5.880;2023-01-16T01:31:07;12.48;;;7.55;;
55710;SDS011;41612;51.994;5.880;2023-01-16T01:33:34;8.57;;;5.80;;
55710;SDS011;41612;51.994;5.880;2023-01-16T01:36:00;11.15;;;6.95;;
55710;SDS011;41612;51.994;5.880;2023-01-16T01:38:26;11.05;;;8.52;;
55710;SDS011;41612;51.994;5.880;2023-01-16T01:40:51;11.68;;;7.78;;
55710;SDS011;41612;51.994;5.880;2023-01-16T01:43:17;9.40;;;7.50;;
55710;SDS011;41612;51.994;5.880;2023-01-16T01:45:48;9.50;;;6.03;;
55710;SDS011;41612;51.994;5.880;2023-01-16T01:48:24;8.50;;;6.32;;
55710;SDS011;41612;51.994;5.880;2023-01-16T01:53:27;9.88;;;6.70;;
55710;SDS011;41612;51.994;5.880;2023-01-16T01:56:15;13.43;;;5.47;;
55710;SDS011;41612;51.994;5.880;2023-01-16T01:58:47;10.43;;;5.95;;
55710;SDS011;41612;51.994;5.880;2023-01-16T02:01:16;10.93;;;5.55;;
55710;SDS011;41612;51.994;5.880;2023-01-16T02:03:46;9.75;;;5.22;;
55710;SDS011;41612;51.994;5.880;2023-01-16T02:06:19;10.80;;;5.03;;
55710;SDS011;41612;51.994;5.880;2023-01-16T02:08:51;10.93;;;5.18;;
55710;SDS011;41612;51.994;5.880;2023-01-16T02:11:20;13.13;;;5.10;;
55710;SDS011;41612;51.994;5.880;2023-01-16T02:13:57;7.53;;;4.25;;
55710;SDS011;41612;51.994;5.880;2023-01-16T02:16:25;7.85;;;3.70;;
55710;SDS011;41612;51.994;5.880;2023-01-16T02:19:13;6.57;;;3.30;;
55710;SDS011;41612;51.994;5.880;2023-01-16T02:35:21;8.83;;;2.47;;
55710;SDS011;41612;51.994;5.880;2023-01-16T02:38:10;6.78;;;2.42;;
55710;SDS011;41612;51.994;5.880;2023-01-16T02:40:59;5.90;;;2.60;;
55710;SDS011;41612;51.994;5.880;2023-01-16T02:48:50;5.80;;;2.33;;
55710;SDS011;41612;51.994;5.880;2023-01-16T02:54:07;4.18;;;2.22;;
55710;SDS011;41612;51.994;5.880;2023-01-16T02:56:45;5.78;;;2.00;;
55710;SDS011;41612;51.994;5.880;2023-01-16T02:59:15;3.72;;;2.22;;
55710;SDS011;41612;51.994;5.880;2023-01-16T03:01:44;7.00;;;2.40;;
55710;SDS011;41612;51.994;5.880;2023-01-16T03:10:04;6.15;;;2.03;;
55710;SDS011;41612;51.994;5.880;2023-01-16T03:15:39;6.70;;;2.30;;
55710;SDS011;41612;51.994;5.880;2023-01-16T03:18:29;9.27;;;1.90;;
55710;SDS011;41612;51.994;5.880;2023-01-16T03:24:20;5.80;;;2.40;;
55710;SDS011;41612;51.994;5.880;2023-01-16T03:27:00;6.32;;;2.22;;
55710;SDS011;41612;51.994;5.880;2023-01-16T03:29:47;4.28;;;1.98;;
55710;SDS011;41612;51.994;5.880;2023-01-16T03:32:49;9.95;;;2.42;;
55710;SDS011;41612;51.994;5.880;2023-01-16T03:35:34;5.68;;;1.70;;
55710;SDS011;41612;51.994;5.880;2023-01-16T03:38:10;8.57;;;2.07;;
55710;SDS011;41612;51.994;5.880;2023-01-16T03:40:39;6.20;;;2.17;;
55710;SDS011;41612;51.994;5.880;2023-01-16T03:43:08;6.65;;;2.22;;
55710;SDS011;41612;51.994;5.880;2023-01-16T03:45:52;4.90;;;1.80;;
55710;SDS011;41612;51.994;5.880;2023-01-16T03:51:26;10.80;;;2.42;;
55710;SDS011;41612;51.994;5.880;2023-01-16T03:54:03;5.65;;;1.80;;
55710;SDS011;41612;51.994;5.880;2023-01-16T03:56:53;8.45;;;2.17;;
55710;SDS011;41612;51.994;5.880;2023-01-16T03:59:33;5.93;;;2.17;;
55710;SDS011;41612;51.994;5.880;2023-01-16T04:04:35;6.90;;;2.13;;
55710;SDS011;41612;51.994;5.880;2023-01-16T04:07:17;4.88;;;2.20;;
55710;SDS011;41612;51.994;5.880;2023-01-16T04:09:58;10.57;;;1.85;;
55710;SDS011;41612;51.994;5.880;2023-01-16T04:12:37;8.20;;;1.70;;
55710;SDS011;41612;51.994;5.880;2023-01-16T04:15:08;6.80;;;1.70;;
55710;SDS011;41612;51.994;5.880;2023-01-16T04:17:35;11.63;;;3.13;;
55710;SDS011;41612;51.994;5.880;2023-01-16T04:20:02;5.03;;;2.55;;
55710;SDS011;41612;51.994;5.880;2023-01-16T04:22:29;8.25;;;2.22;;
55710;SDS011;41612;51.994;5.880;2023-01-16T04:24:56;8.68;;;1.65;;
55710;SDS011;41612;51.994;5.880;2023-01-16T04:27:24;4.32;;;1.65;;
55710;SDS011;41612;51.994;5.880;2023-01-16T04:29:50;13.15;;;2.08;;
55710;SDS011;41612;51.994;5.880;2023-01-16T04:32:16;6.95;;;2.10;;
55710;SDS011;41612;51.994;5.880;2023-01-16T04:34:42;13.48;;;1.92;;
55710;SDS011;41612;51.994;5.880;2023-01-16T04:37:08;8.75;;;2.35;;
55710;SDS011;41612;51.994;5.880;2023-01-16T04:39:39;6.03;;;2.55;;
55710;SDS011;41612;51.994;5.880;2023-01-16T04:42:05;10.05;;;2.78;;
55710;SDS011;41612;51.994;5.880;2023-01-16T04:44:32;9.70;;;3.25;;
55710;SDS011;41612;51.994;5.880;2023-01-16T04:46:57;8.57;;;2.22;;
55710;SDS011;41612;51.994;5.880;2023-01-16T04:49:23;5.90;;;2.58;;
55710;SDS011;41612;51.994;5.880;2023-01-16T04:51:49;8.60;;;2.15;;
55710;SDS011;41612;51.994;5.880;2023-01-16T04:54:15;10.73;;;2.28;;
55710;SDS011;41612;51.994;5.880;2023-01-16T04:56:42;9.15;;;3.15;;
55710;SDS011;41612;51.994;5.880;2023-01-16T04:59:08;6.55;;;2.40;;
55710;SDS011;41612;51.994;5.880;2023-01-16T05:01:34;10.98;;;2.45;;
55710;SDS011;41612;51.994;5.880;2023-01-16T05:04:02;6.75;;;1.92;;
55710;SDS011;41612;51.994;5.880;2023-01-16T05:06:31;5.45;;;1.92;;
55710;SDS011;41612;51.994;5.880;2023-01-16T05:08:58;4.03;;;2.17;;
55710;SDS011;41612;51.994;5.880;2023-01-16T05:11:24;8.82;;;2.22;;
55710;SDS011;41612;51.994;5.880;2023-01-16T05:13:49;12.45;;;3.20;;
55710;SDS011;41612;51.994;5.880;2023-01-16T05:16:15;9.35;;;2.17;;
55710;SDS011;41612;51.994;5.880;2023-01-16T05:18:41;8.02;;;2.65;;
55710;SDS011;41612;51.994;5.880;2023-01-16T05:21:06;7.03;;;2.30;;
55710;SDS011;41612;51.994;5.880;2023-01-16T05:23:32;8.63;;;2.90;;
55710;SDS011;41612;51.994;5.880;2023-01-16T05:26:00;8.90;;;3.50;;
55710;SDS011;41612;51.994;5.880;2023-01-16T05:28:26;11.35;;;3.67;;
55710;SDS011;41612;51.994;5.880;2023-01-16T05:30:52;9.57;;;3.83;;
55710;SDS011;41612;51.994;5.880;2023-01-16T05:33:18;8.15;;;3.30;;
55710;SDS011;41612;51.994;5.880;2023-01-16T05:35:47;10.93;;;3.70;;
55710;SDS011;41612;51.994;5.880;2023-01-16T05:38:14;9.63;;;4.85;;
55710;SDS011;41612;51.994;5.880;2023-01-16T05:40:40;8.75;;;3.67;;
55710;SDS011;41612;51.994;5.880;2023-01-16T05:43:06;9.57;;;3.55;;
55710;SDS011;41612;51.994;5.880;2023-01-16T05:45:32;7.57;;;3.40;;
55710;SDS011;41612;51.994;5.880;2023-01-16T05:47:58;10.30;;;3.17;;
55710;SDS011;41612;51.994;5.880;2023-01-16T05:50:24;8.73;;;3.28;;
55710;SDS011;41612;51.994;5.880;2023-01-16T05:52:50;7.07;;;2.33;;
55710;SDS011;41612;51.994;5.880;2023-01-16T05:55:15;12.68;;;3.03;;
55710;SDS011;41612;51.994;5.880;2023-01-16T05:57:41;8.43;;;3.20;;
55710;SDS011;41612;51.994;5.880;2023-01-16T06:00:07;11.50;;;2.85;;
55710;SDS011;41612;51.994;5.880;2023-01-16T06:02:34;10.02;;;2.58;;
55710;SDS011;41612;51.994;5.880;2023-01-16T06:05:00;11.55;;;2.90;;
55710;SDS011;41612;51.994;5.880;2023-01-16T06:07:26;7.82;;;2.47;;
55710;SDS011;41612;51.994;5.880;2023-01-16T06:09:52;9.15;;;2.58;;
55710;SDS011;41612;51.994;5.880;2023-01-16T06:12:18;7.88;;;2.50;;
55710;SDS011;41612;51.994;5.880;2023-01-16T06:14:45;8.68;;;2.60;;
55710;SDS011;41612;51.994;5.880;2023-01-16T06:17:10;5.90;;;1.77;;
55710;SDS011;41612;51.994;5.880;2023-01-16T06:19:39;4.32;;;2.85;;
55710;SDS011;41612;51.994;5.880;2023-01-16T06:22:06;5.72;;;1.73;;
55710;SDS011;41612;51.994;5.880;2023-01-16T06:24:32;7.97;;;1.83;;
55710;SDS011;41612;51.994;5.880;2023-01-16T06:26:57;6.50;;;1.50;;
55710;SDS011;41612;51.994;5.880;2023-01-16T06:29:24;6.72;;;2.08;;
55710;SDS011;41612;51.994;5.880;2023-01-16T06:31:50;7.45;;;1.83;;
55710;SDS011;41612;51.994;5.880;2023-01-16T06:34:15;13.55;;;2.28;;
55710;SDS011;41612;51.994;5.880;2023-01-16T06:36:41;5.35;;;1.60;;
55710;SDS011;41612;51.994;5.880;2023-01-16T06:39:09;6.05;;;1.80;;
55710;SDS011;41612;51.994;5.880;2023-01-16T06:41:35;9.57;;;1.52;;
55710;SDS011;41612;51.994;5.880;2023-01-16T06:44:01;7.03;;;1.90;;
55710;SDS011;41612;51.994;5.880;2023-01-16T06:46:27;3.92;;;1.60;;
55710;SDS011;41612;51.994;5.880;2023-01-16T06:48:52;8.63;;;1.80;;
55710;SDS011;41612;51.994;5.880;2023-01-16T06:51:18;8.80;;;1.63;;
55710;SDS011;41612;51.994;5.880;2023-01-16T06:53:44;5.75;;;1.30;;
55710;SDS011;41612;51.994;5.880;2023-01-16T06:56:09;3.95;;;1.60;;
55710;SDS011;41612;51.994;5.880;2023-01-16T06:58:35;7.13;;;1.50;;
55710;SDS011;41612;51.994;5.880;2023-01-16T07:01:01;5.22;;;1.65;;
55710;SDS011;41612;51.994;5.880;2023-01-16T07:03:26;5.15;;;1.38;;
55710;SDS011;41612;51.994;5.880;2023-01-16T07:05:52;8.10;;;1.85;;
55710;SDS011;41612;51.994;5.880;2023-01-16T07:08:21;6.70;;;1.40;;
55710;SDS011;41612;51.994;5.880;2023-01-16T07:10:47;3.60;;;1.50;;
55710;SDS011;41612;51.994;5.880;2023-01-16T07:13:13;6.22;;;1.58;;
55710;SDS011;41612;51.994;5.880;2023-01-16T07:15:39;9.57;;;1.77;;
55710;SDS011;41612;51.994;5.880;2023-01-16T07:18:29;9.90;;;2.22;;
55710;SDS011;41612;51.994;5.880;2023-01-16T07:21:13;8.65;;;1.85;;
55710;SDS011;41612;51.994;5.880;2023-01-16T07:23:59;7.88;;;2.83;;
55710;SDS011;41612;51.994;5.880;2023-01-16T07:26:31;8.48;;;2.50;;
55710;SDS011;41612;51.994;5.880;2023-01-16T07:28:58;10.10;;;2.20;;
55710;SDS011;41612;51.994;5.880;2023-01-16T07:31:24;6.95;;;2.60;;
55710;SDS011;41612;51.994;5.880;2023-01-16T07:33:50;9.00;;;2.50;;
55710;SDS011;41612;51.994;5.880;2023-01-16T07:36:16;11.27;;;2.83;;
55710;SDS011;41612;51.994;5.880;2023-01-16T07:38:42;6.25;;;2.50;;
55710;SDS011;41612;51.994;5.880;2023-01-16T07:41:08;9.15;;;3.63;;
55710;SDS011;41612;51.994;5.880;2023-01-16T07:43:33;9.70;;;3.90;;
55710;SDS011;41612;51.994;5.880;2023-01-16T07:45:59;11.45;;;3.33;;
55710;SDS011;41612;51.994;5.880;2023-01-16T07:48:25;6.75;;;3.22;;
55710;SDS011;41612;51.994;5.880;2023-01-16T07:50:51;9.70;;;2.78;;
55710;SDS011;41612;51.994;5.880;2023-01-16T07:53:19;10.98;;;3.78;;
55710;SDS011;41612;51.994;5.880;2023-01-16T07:55:47;6.00;;;3.30;;
55710;SDS011;41612;51.994;5.880;2023-01-16T07:58:16;11.38;;;4.60;;
55710;SDS011;41612;51.994;5.880;2023-01-16T08:00:43;10.73;;;3.42;;
55710;SDS011;41612;51.994;5.880;2023-01-16T08:03:09;8.50;;;3.50;;
55710;SDS011;41612;51.994;5.880;2023-01-16T08:05:35;7.60;;;2.85;;
55710;SDS011;41612;51.994;5.880;2023-01-16T08:08:01;8.80;;;2.80;;
55710;SDS011;41612;51.994;5.880;2023-01-16T08:10:27;8.25;;;2.78;;
55710;SDS011;41612;51.994;5.880;2023-01-16T08:12:53;9.35;;;2.90;;
55710;SDS011;41612;51.994;5.880;2023-01-16T08:15:18;7.22;;;2.55;;
55710;SDS011;41612;51.994;5.880;2023-01-16T08:17:44;6.32;;;2.20;;
55710;SDS011;41612;51.994;5.880;2023-01-16T08:20:10;9.63;;;2.50;;
55710;SDS011;41612;51.994;5.880;2023-01-16T08:22:45;6.80;;;2.05;;
55710;SDS011;41612;51.994;5.880;2023-01-16T08:25:13;6.75;;;2.08;;
55710;SDS011;41612;51.994;5.880;2023-01-16T08:27:39;6.18;;;2.10;;
55710;SDS011;41612;51.994;5.880;2023-01-16T08:30:06;5.57;;;1.58;;
55710;SDS011;41612;51.994;5.880;2023-01-16T08:32:32;9.85;;;2.33;;
55710;SDS011;41612;51.994;5.880;2023-01-16T08:34:58;5.47;;;2.92;;
55710;SDS011;41612;51.994;5.880;2023-01-16T08:37:24;6.65;;;1.95;;
55710;SDS011;41612;51.994;5.880;2023-01-16T08:39:49;5.63;;;1.92;;
55710;SDS011;41612;51.994;5.880;2023-01-16T08:42:15;4.28;;;1.65;;
55710;SDS011;41612;51.994;5.880;2023-01-16T08:44:59;5.35;;;2.10;;
55710;SDS011;41612;51.994;5.880;2023-01-16T08:47:43;7.90;;;2.50;;
55710;SDS011;41612;51.994;5.880;2023-01-16T08:50:28;6.63;;;2.03;;
55710;SDS011;41612;51.994;5.880;2023-01-16T08:53:12;9.65;;;1.90;;
55710;SDS011;41612;51.994;5.880;2023-01-16T08:55:38;7.97;;;1.90;;
55710;SDS011;41612;51.994;5.880;2023-01-16T08:58:04;8.07;;;2.17;;
55710;SDS011;41612;51.994;5.880;2023-01-16T09:00:31;7.40;;;2.22;;
55710;SDS011;41612;51.994;5.880;2023-01-16T09:02:58;4.47;;;1.85;;
55710;SDS011;41612;51.994;5.880;2023-01-16T09:05:26;4.82;;;1.95;;
55710;SDS011;41612;51.994;5.880;2023-01-16T09:07:52;7.53;;;2.22;;
55710;SDS011;41612;51.994;5.880;2023-01-16T09:10:19;4.70;;;2.08;;
55710;SDS011;41612;51.994;5.880;2023-01-16T09:12:45;9.02;;;3.05;;
55710;SDS011;41612;51.994;5.880;2023-01-16T09:15:29;8.00;;;2.50;;
55710;SDS011;41612;51.994;5.880;2023-01-16T09:17:55;8.50;;;2.80;;
55710;SDS011;41612;51.994;5.880;2023-01-16T09:20:21;7.03;;;2.38;;
55710;SDS011;41612;51.994;5.880;2023-01-16T09:22:46;7.07;;;2.55;;
55710;SDS011;41612;51.994;5.880;2023-01-16T09:25:12;9.05;;;2.72;;
55710;SDS011;41612;51.994;5.880;2023-01-16T09:27:38;7.15;;;2.88;;
55710;SDS011;41612;51.994;5.880;2023-01-16T09:30:04;7.97;;;3.03;;
55710;SDS011;41612;51.994;5.880;2023-01-16T09:32:33;8.95;;;3.05;;
55710;SDS011;41612;51.994;5.880;2023-01-16T09:34:59;9.98;;;2.90;;
55710;SDS011;41612;51.994;5.880;2023-01-16T09:37:24;6.35;;;2.70;;
55710;SDS011;41612;51.994;5.880;2023-01-16T09:39:50;5.28;;;2.50;;
55710;SDS011;41612;51.994;5.880;2023-01-16T09:45:05;5.28;;;2.78;;
55710;SDS011;41612;51.994;5.880;2023-01-16T09:47:35;8.77;;;3.00;;
55710;SDS011;41612;51.994;5.880;2023-01-16T09:50:06;5.63;;;2.83;;
55710;SDS011;41612;51.994;5.880;2023-01-16T09:52:39;9.80;;;3.17;;
55710;SDS011;41612;51.994;5.880;2023-01-16T09:55:41;7.65;;;3.15;;
55710;SDS011;41612;51.994;5.880;2023-01-16T09:58:28;5.50;;;3.17;;
55710;SDS011;41612;51.994;5.880;2023-01-16T10:03:47;8.85;;;2.67;;
55710;SDS011;41612;51.994;5.880;2023-01-16T10:20:08;4.45;;;2.58;;
55710;SDS011;41612;51.994;5.880;2023-01-16T10:22:57;5.70;;;2.33;;
55710;SDS011;41612;51.994;5.880;2023-01-16T10:31:00;6.03;;;2.35;;
55710;SDS011;41612;51.994;5.880;2023-01-16T10:33:44;4.25;;;2.65;;
55710;SDS011;41612;51.994;5.880;2023-01-16T10:36:22;5.18;;;2.90;;
55710;SDS011;41612;51.994;5.880;2023-01-16T10:38:56;5.78;;;2.20;;
55710;SDS011;41612;51.994;5.880;2023-01-16T10:47:31;4.70;;;2.25;;
55710;SDS011;41612;51.994;5.880;2023-01-16T10:50:17;3.78;;;2.08;;
55710;SDS011;41612;51.994;5.880;2023-01-16T10:52:47;7.32;;;2.55;;
55710;SDS011;41612;51.994;5.880;2023-01-16T10:55:14;4.88;;;2.33;;
55710;SDS011;41612;51.994;5.880;2023-01-16T10:58:41;4.00;;;2.33;;
55710;SDS011;41612;51.994;5.880;2023-01-16T11:00:44;6.18;;;2.03;;
55710;SDS011;41612;51.994;5.880;2023-01-16T11:03:15;5.22;;;2.00;;
55710;SDS011;41612;51.994;5.880;2023-01-16T11:06:34;2.78;;;1.70;;
55710;SDS011;41612;51.994;5.880;2023-01-16T11:08:57;3.28;;;1.63;;
55710;SDS011;41612;51.994;5.880;2023-01-16T11:11:30;8.50;;;1.65;;
55710;SDS011;41612;51.994;5.880;2023-01-16T11:14:19;6.70;;;2.78;;
55710;SDS011;41612;51.994;5.880;2023-01-16T11:17:24;3.15;;;1.80;;
55710;SDS011;41612;51.994;5.880;2023-01-16T11:20:34;5.80;;;1.92;;
55710;SDS011;41612;51.994;5.880;2023-01-16T11:23:04;3.67;;;1.73;;
55710;SDS011;41612;51.994;5.880;2023-01-16T11:25:39;4.85;;;1.55;;
55710;SDS011;41612;51.994;5.880;2023-01-16T11:28:08;5.30;;;1.45;;
55710;SDS011;41612;51.994;5.880;2023-01-16T11:30:45;3.00;;;1.20;;
55710;SDS011;41612;51.994;5.880;2023-01-16T11:33:14;2.08;;;1.10;;
55710;SDS011;41612;51.994;5.880;2023-01-16T11:35:44;12.07;;;2.50;;
55710;SDS011;41612;51.994;5.880;2023-01-16T11:38:23;4.07;;;1.40;;
55710;SDS011;41612;51.994;5.880;2023-01-16T11:40:52;2.67;;;1.30;;
55710;SDS011;41612;51.994;5.880;2023-01-16T11:43:22;1.77;;;1.00;;
55710;SDS011;41612;51.994;5.880;2023-01-16T11:48:59;3.40;;;1.10;;
55710;SDS011;41612;51.994;5.880;2023-01-16T11:51:29;3.00;;;0.80;;
55710;SDS011;41612;51.994;5.880;2023-01-16T11:54:01;2.63;;;1.00;;
55710;SDS011;41612;51.994;5.880;2023-01-16T11:56:56;4.85;;;1.20;;
55710;SDS011;41612;51.994;5.880;2023-01-16T11:59:49;4.90;;;1.73;;
55710;SDS011;41612;51.994;5.880;2023-01-16T12:05:37;3.95;;;1.20;;
55710;SDS011;41612;51.994;5.880;2023-01-16T12:11:21;2.85;;;1.40;;
55710;SDS011;41612;51.994;5.880;2023-01-16T12:13:57;3.40;;;1.02;;
55710;SDS011;41612;51.994;5.880;2023-01-16T12:36:59;1.55;;;0.80;;
55710;SDS011;41612;51.994;5.880;2023-01-16T12:45:26;1.98;;;1.10;;
55710;SDS011;41612;51.994;5.880;2023-01-16T12:51:07;2.47;;;1.25;;
55710;SDS011;41612;51.994;5.880;2023-01-16T13:27:19;2.55;;;1.50;;
55710;SDS011;41612;51.994;5.880;2023-01-16T13:30:08;2.35;;;1.15;;
55710;SDS011;41612;51.994;5.880;2023-01-16T13:32:43;2.33;;;1.13;;
55710;SDS011;41612;51.994;5.880;2023-01-16T13:35:28;3.70;;;1.65;;
55710;SDS011;41612;51.994;5.880;2023-01-16T13:47:09;1.83;;;1.10;;
55710;SDS011;41612;51.994;5.880;2023-01-16T13:49:47;2.17;;;1.10;;
55710;SDS011;41612;51.994;5.880;2023-01-16T13:52:26;1.53;;;0.80;;
55710;SDS011;41612;51.994;5.880;2023-01-16T13:54:54;4.07;;;1.17;;
55710;SDS011;41612;51.994;5.880;2023-01-16T13:57:23;1.92;;;0.80;;
55710;SDS011;41612;51.994;5.880;2023-01-16T13:59:53;2.67;;;1.00;;
55710;SDS011;41612;51.994;5.880;2023-01-16T14:02:27;2.15;;;0.80;;
55710;SDS011;41612;51.994;5.880;2023-01-16T14:05:21;2.33;;;0.95;;
55710;SDS011;41612;51.994;5.880;2023-01-16T14:10:43;2.08;;;1.00;;
55710;SDS011;41612;51.994;5.880;2023-01-16T14:15:58;2.92;;;1.00;;
55710;SDS011;41612;51.994;5.880;2023-01-16T14:18:58;3.35;;;1.10;;
55710;SDS011;41612;51.994;5.880;2023-01-16T14:21:44;2.50;;;1.27;;
55710;SDS011;41612;51.994;5.880;2023-01-16T14:24:29;4.18;;;1.60;;
55710;SDS011;41612;51.994;5.880;2023-01-16T14:27:12;2.83;;;1.40;;
55710;SDS011;41612;51.994;5.880;2023-01-16T14:29:59;2.30;;;1.23;;
55710;SDS011;41612;51.994;5.880;2023-01-16T14:32:57;2.38;;;1.27;;
55710;SDS011;41612;51.994;5.880;2023-01-16T14:35:29;3.05;;;1.20;;
55710;SDS011;41612;51.994;5.880;2023-01-16T14:38:06;3.13;;;1.40;;
55710;SDS011;41612;51.994;5.880;2023-01-16T14:40:46;2.30;;;1.48;;
55710;SDS011;41612;51.994;5.880;2023-01-16T14:44:34;5.35;;;1.60;;
55710;SDS011;41612;51.994;5.880;2023-01-16T14:47:08;2.17;;;1.38;;
55710;SDS011;41612;51.994;5.880;2023-01-16T14:50:15;2.45;;;1.50;;
55710;SDS011;41612;51.994;5.880;2023-01-16T14:55:49;4.47;;;1.58;;
55710;SDS011;41612;51.994;5.880;2023-01-16T14:58:31;2.88;;;1.73;;
55710;SDS011;41612;51.994;5.880;2023-01-16T15:01:14;4.40;;;1.70;;
55710;SDS011;41612;51.994;5.880;2023-01-16T15:04:10;3.85;;;2.33;;
55710;SDS011;41612;51.994;5.880;2023-01-16T15:06:42;5.38;;;2.00;;
55710;SDS011;41612;51.994;5.880;2023-01-16T15:09:16;3.55;;;1.75;;
55710;SDS011;41612;51.994;5.880;2023-01-16T15:12:34;3.47;;;1.63;;
55710;SDS011;41612;51.994;5.880;2023-01-16T15:14:53;2.40;;;1.63;;
55710;SDS011;41612;51.994;5.880;2023-01-16T15:23:18;3.83;;;2.00;;
55710;SDS011;41612;51.994;5.880;2023-01-16T15:33:41;4.90;;;2.30;;
55710;SDS011;41612;51.994;5.880;2023-01-16T15:36:30;5.50;;;2.28;;
55710;SDS011;41612;51.994;5.880;2023-01-16T15:38:57;6.65;;;2.80;;
55710;SDS011;41612;51.994;5.880;2023-01-16T15:41:26;5.88;;;3.35;;
55710;SDS011;41612;51.994;5.880;2023-01-16T15:44:14;4.70;;;2.63;;
55710;SDS011;41612;51.994;5.880;2023-01-16T15:50:04;4.40;;;3.08;;
55710;SDS011;41612;51.994;5.880;2023-01-16T15:52:44;3.80;;;3.00;;
55710;SDS011;41612;51.994;5.880;2023-01-16T15:55:29;4.47;;;2.83;;
55710;SDS011;41612;51.994;5.880;2023-01-16T15:58:02;4.38;;;2.38;;
55710;SDS011;41612;51.994;5.880;2023-01-16T16:02:59;4.47;;;2.58;;
55710;SDS011;41612;51.994;5.880;2023-01-16T16:05:28;5.28;;;2.42;;
55710;SDS011;41612;51.994;5.880;2023-01-16T16:07:57;5.68;;;3.10;;
55710;SDS011;41612;51.994;5.880;2023-01-16T16:10:24;4.85;;;3.85;;
55710;SDS011;41612;51.994;5.880;2023-01-16T16:13:10;7.97;;;3.30;;
55710;SDS011;41612;51.994;5.880;2023-01-16T16:15:51;4.30;;;2.17;;
55710;SDS011;41612;51.994;5.880;2023-01-16T16:18:37;3.88;;;2.53;;
55710;SDS011;41612;51.994;5.880;2023-01-16T16:21:06;4.72;;;2.70;;
55710;SDS011;41612;51.994;5.880;2023-01-16T16:23:37;4.60;;;3.30;;
55710;SDS011;41612;51.994;5.880;2023-01-16T16:26:03;7.78;;;4.13;;
55710;SDS011;41612;51.994;5.880;2023-01-16T16:31:13;5.25;;;4.20;;
55710;SDS011;41612;51.994;5.880;2023-01-16T16:33:41;6.75;;;5.18;;
55710;SDS011;41612;51.994;5.880;2023-01-16T16:36:13;8.43;;;5.32;;
55710;SDS011;41612;51.994;5.880;2023-01-16T16:44:22;6.18;;;5.30;;
55710;SDS011;41612;51.994;5.880;2023-01-16T16:46:48;10.02;;;7.60;;
55710;SDS011;41612;51.994;5.880;2023-01-16T16:51:40;8.52;;;6.32;;
55710;SDS011;41612;51.994;5.880;2023-01-16T16:54:08;10.85;;;9.65;;
55710;SDS011;41612;51.994;5.880;2023-01-16T16:56:36;9.27;;;6.03;;
55710;SDS011;41612;51.994;5.880;2023-01-16T16:59:04;7.53;;;5.35;;
55710;SDS011;41612;51.994;5.880;2023-01-16T17:01:32;7.65;;;5.57;;
55710;SDS011;41612;51.994;5.880;2023-01-16T17:04:00;10.07;;;6.75;;
55710;SDS011;41612;51.994;5.880;2023-01-16T17:06:32;5.88;;;4.68;;
55710;SDS011;41612;51.994;5.880;2023-01-16T17:08:59;6.25;;;3.90;;
55710;SDS011;41612;51.994;5.880;2023-01-16T17:11:26;4.45;;;3.05;;
55710;SDS011;41612;51.994;5.880;2023-01-16T17:13:51;5.55;;;2.88;;
55710;SDS011;41612;51.994;5.880;2023-01-16T17:16:23;3.53;;;2.97;;
55710;SDS011;41612;51.994;5.880;2023-01-16T17:19:36;5.22;;;2.70;;
55710;SDS011;41612;51.994;5.880;2023-01-16T17:21:44;3.40;;;2.38;;
55710;SDS011;41612;51.994;5.880;2023-01-16T17:24:16;4.72;;;2.35;;
55710;SDS011;41612;51.994;5.880;2023-01-16T17:26:44;3.88;;;3.00;;
55710;SDS011;41612;51.994;5.880;2023-01-16T17:29:09;3.17;;;2.25;;
55710;SDS011;41612;51.994;5.880;2023-01-16T17:31:36;3.92;;;2.60;;
55710;SDS011;41612;51.994;5.880;2023-01-16T17:34:04;4.57;;;2.95;;
55710;SDS011;41612;51.994;5.880;2023-01-16T17:36:30;4.00;;;2.50;;
55710;SDS011;41612;51.994;5.880;2023-01-16T17:38:57;4.50;;;3.38;;
55710;SDS011;41612;51.994;5.880;2023-01-16T17:41:24;4.63;;;3.47;;
55710;SDS011;41612;51.994;5.880;2023-01-16T17:44:16;4.72;;;3.05;;
55710;SDS011;41612;51.994;5.880;2023-01-16T17:47:05;4.80;;;3.00;;
55710;SDS011;41612;51.994;5.880;2023-01-16T17:49:31;4.28;;;2.75;;
55710;SDS011;41612;51.994;5.880;2023-01-16T17:52:17;5.28;;;3.50;;
55710;SDS011;41612;51.994;5.880;2023-01-16T17:54:43;6.45;;;2.35;;
55710;SDS011;41612;51.994;5.880;2023-01-16T17:57:27;4.80;;;2.70;;
55710;SDS011;41612;51.994;5.880;2023-01-16T17:59:52;4.10;;;2.75;;
55710;SDS011;41612;51.994;5.880;2023-01-16T18:02:18;4.00;;;2.72;;
55710;SDS011;41612;51.994;5.880;2023-01-16T18:04:44;6.20;;;3.70;;
55710;SDS011;41612;51.994;5.880;2023-01-16T18:07:10;5.43;;;4.00;;
55710;SDS011;41612;51.994;5.880;2023-01-16T18:09:35;5.70;;;3.85;;
55710;SDS011;41612;51.994;5.880;2023-01-16T18:12:01;6.82;;;4.03;;
55710;SDS011;41612;51.994;5.880;2023-01-16T18:15:06;5.90;;;3.92;;
55710;SDS011;41612;51.994;5.880;2023-01-16T18:17:50;4.38;;;3.10;;
55710;SDS011;41612;51.994;5.880;2023-01-16T18:20:18;6.40;;;4.97;;
55710;SDS011;41612;51.994;5.880;2023-01-16T18:22:44;7.35;;;5.20;;
55710;SDS011;41612;51.994;5.880;2023-01-16T18:25:10;5.38;;;4.15;;
55710;SDS011;41612;51.994;5.880;2023-01-16T18:27:36;6.20;;;4.72;;